CDT,Max TemperatureF,Mean TemperatureF,Min TemperatureF,Max Dew PointF,MeanDew PointF,Min DewpointF,Max Humidity, Mean Humidity, Min Humidity, Max Sea Level PressureIn, Mean Sea Level PressureIn, Min Sea Level PressureIn, Max VisibilityMiles, Mean VisibilityMiles, Min VisibilityMiles, Max Wind SpeedMPH, Mean Wind SpeedMPH, Max Gust SpeedMPH,PrecipitationIn, CloudCover, Events, WindDirDegrees
2013-3-1,29,25,21,25,21,16,88,76,63,30.32,30.20,30.11,10,5,1,15,11,17,0.01,8,Snow,9
2013-3-2,26,17,7,16,12,6,91,74,57,30.35,30.29,30.19,10,10,8,15,7,17,0.00,2,,323
2013-3-3,32,24,15,22,18,13,84,69,54,30.22,30.09,29.97,10,10,2,17,9,22,T,7,Snow,135
2013-3-4,36,31,26,28,26,21,92,84,75,29.98,29.89,29.82,10,7,1,21,16,28,T,5,Snow,99
2013-3-5,31,29,27,28,24,19,92,78,63,30.25,30.00,29.90,10,5,0,31,18,39,0.14,8,Fog-Snow,319
2013-3-6,29,24,19,22,18,15,84,76,68,30.43,30.36,30.24,10,10,10,23,13,28,0.00,6,,342
2013-3-7,32,22,11,22,17,9,100,82,63,30.42,30.36,30.32,10,7,2,13,7,16,0.00,3,,120
2013-3-8,41,32,22,32,27,19,96,80,64,30.35,30.28,30.12,10,7,4,17,11,21,T,2,Rain,123
2013-3-9,47,42,36,45,36,31,92,84,76,30.09,29.88,29.67,9,4,2,24,15,30,1.26,8,Rain-Snow-Thunderstorm,155
2013-3-10,49,42,34,47,40,33,100,96,92,29.71,29.65,29.60,10,3,0,24,8,29,0.41,8,Fog-Rain,291
2013-3-11,34,30,25,34,26,19,100,85,69,29.97,29.79,29.64,10,8,2,23,14,29,0.01,8,Snow,298
2013-3-12,35,30,24,27,22,15,81,70,58,30.23,30.08,29.98,10,8,1,30,16,39,T,6,Snow,289
2013-3-13,36,28,19,20,17,14,84,64,44,30.46,30.36,30.22,10,10,10,24,10,30,0.00,1,,321
2013-3-14,56,41,26,37,28,20,89,66,43,30.36,30.16,30.07,10,10,7,22,8,26,T,2,,177
2013-3-15,59,44,28,43,34,27,92,73,54,30.07,29.86,29.71,10,6,2,16,7,18,0.00,0,,87
2013-3-16,38,33,28,34,28,22,96,80,64,30.19,29.98,29.75,10,7,2,28,15,35,0.00,7,,345
2013-3-17,38,31,24,28,22,18,85,72,59,30.18,30.06,29.84,10,10,3,20,13,24,T,4,Snow,84
2013-3-18,39,31,22,31,27,14,100,78,56,30.00,29.78,29.72,10,5,0,31,14,41,0.14,7,Fog-Rain-Snow,278
2013-3-19,41,30,18,20,12,7,75,52,29,30.23,30.15,29.98,10,10,10,20,12,23,0.00,1,,307
2013-3-20,30,23,16,19,8,1,75,55,35,30.33,30.26,30.17,10,10,6,30,17,38,T,4,Snow,320
2013-3-21,35,23,10,15,10,5,83,62,41,30.16,30.09,30.01,10,10,10,12,5,15,0.00,0,,30
2013-3-22,41,30,19,24,17,13,84,61,37,30.09,30.06,30.00,10,10,10,10,5,16,0.00,3,,73
2013-3-23,45,37,29,29,24,20,82,61,40,30.12,30.06,29.99,10,9,1,18,9,23,T,7,Snow,32
2013-3-24,31,30,29,28,27,26,92,89,85,30.01,29.90,29.82,6,2,0,23,15,26,0.02,8,Fog-Snow,360
2013-3-25,34,31,27,27,24,20,92,77,61,30.25,30.02,29.91,10,6,1,22,15,25,T,7,Snow,328
2013-3-26,39,31,23,24,21,18,81,67,52,30.36,30.32,30.25,10,10,10,18,10,22,0.00,2,,293
2013-3-27,46,34,22,27,23,18,88,67,45,30.39,30.34,30.28,10,10,10,10,4,14,0.00,0,,145
2013-3-28,55,40,25,35,29,24,85,65,44,30.35,30.30,30.23,10,10,10,16,8,21,0.00,1,,118
2013-3-29,61,46,31,34,30,26,78,55,32,30.30,30.24,30.17,10,10,10,16,8,18,0.00,0,,115
2013-3-30,52,47,41,47,43,33,100,85,70,30.15,29.97,29.89,10,6,0,28,11,38,0.02,6,Fog-Rain,197
2013-3-31,58,46,33,46,36,23,100,63,25,30.07,29.91,29.87,10,5,0,30,14,37,0.01,3,Fog,297